sensor_id;sensor_type;location;lat;lon;timestamp;P1;durP1;ratioP1;P2;durP2;ratioP2
11616;SDS011;5864;52.998;9.068;2023-01-13T00:00:13;2.57;;;1.20;;
11616;SDS011;5864;52.998;9.068;2023-01-13T00:02:42;2.20;;;1.20;;
11616;SDS011;5864;52.998;9.068;2023-01-13T00:05:09;3.03;;;1.03;;
11616;SDS011;5864;52.998;9.068;2023-01-13T00:07:37;1.70;;;1.10;;
11616;SDS011;5864;52.998;9.068;2023-01-13T00:10:06;2.37;;;1.03;;
11616;SDS011;5864;52.998;9.068;2023-01-13T00:12:37;4.37;;;1.00;;
11616;SDS011;5864;52.998;9.068;2023-01-13T00:15:05;2.80;;;1.20;;
11616;SDS011;5864;52.998;9.068;2023-01-13T00:17:36;2.97;;;1.20;;
11616;SDS011;5864;52.998;9.068;2023-01-13T00:20:05;3.07;;;1.13;;
11616;SDS011;5864;52.998;9.068;2023-01-13T00:22:33;6.33;;;1.20;;
11616;SDS011;5864;52.998;9.068;2023-01-13T00:25:00;2.40;;;1.20;;
11616;SDS011;5864;52.998;9.068;2023-01-13T00:27:28;3.63;;;1.30;;
11616;SDS011;5864;52.998;9.068;2023-01-13T00:29:56;3.40;;;1.40;;
11616;SDS011;5864;52.998;9.068;2023-01-13T00:32:24;2.87;;;1.53;;
11616;SDS011;5864;52.998;9.068;2023-01-13T00:34:53;5.10;;;1.50;;
11616;SDS011;5864;52.998;9.068;2023-01-13T00:37:21;3.63;;;1.83;;
11616;SDS011;5864;52.998;9.068;2023-01-13T00:39:49;2.83;;;1.30;;
11616;SDS011;5864;52.998;9.068;2023-01-13T00:42:17;5.83;;;1.43;;
11616;SDS011;5864;52.998;9.068;2023-01-13T00:45:02;2.53;;;1.20;;
11616;SDS011;5864;52.998;9.068;2023-01-13T00:47:30;2.63;;;1.37;;
11616;SDS011;5864;52.998;9.068;2023-01-13T00:49:59;2.40;;;1.20;;
11616;SDS011;5864;52.998;9.068;2023-01-13T00:52:27;2.77;;;1.07;;
11616;SDS011;5864;52.998;9.068;2023-01-13T00:54:54;2.27;;;1.20;;
11616;SDS011;5864;52.998;9.068;2023-01-13T00:57:21;4.17;;;1.30;;
11616;SDS011;5864;52.998;9.068;2023-01-13T00:59:49;1.83;;;1.00;;
11616;SDS011;5864;52.998;9.068;2023-01-13T01:02:16;4.40;;;1.23;;
11616;SDS011;5864;52.998;9.068;2023-01-13T01:04:44;4.40;;;1.77;;
11616;SDS011;5864;52.998;9.068;2023-01-13T01:07:13;2.57;;;1.40;;
11616;SDS011;5864;52.998;9.068;2023-01-13T01:09:41;1.47;;;1.20;;
11616;SDS011;5864;52.998;9.068;2023-01-13T01:12:08;4.47;;;2.07;;
11616;SDS011;5864;52.998;9.068;2023-01-13T01:14:36;3.23;;;1.60;;
11616;SDS011;5864;52.998;9.068;2023-01-13T01:17:04;5.13;;;1.57;;
11616;SDS011;5864;52.998;9.068;2023-01-13T01:19:31;6.67;;;1.90;;
11616;SDS011;5864;52.998;9.068;2023-01-13T01:22:01;3.07;;;1.60;;
11616;SDS011;5864;52.998;9.068;2023-01-13T01:24:30;5.47;;;1.80;;
11616;SDS011;5864;52.998;9.068;2023-01-13T01:26:58;9.17;;;2.07;;
11616;SDS011;5864;52.998;9.068;2023-01-13T01:29:26;8.87;;;1.70;;
11616;SDS011;5864;52.998;9.068;2023-01-13T01:31:53;7.57;;;2.13;;
11616;SDS011;5864;52.998;9.068;2023-01-13T01:34:22;5.07;;;2.00;;
11616;SDS011;5864;52.998;9.068;2023-01-13T01:36:50;4.70;;;1.80;;
11616;SDS011;5864;52.998;9.068;2023-01-13T01:39:17;6.90;;;1.87;;
11616;SDS011;5864;52.998;9.068;2023-01-13T01:41:46;7.60;;;1.90;;
11616;SDS011;5864;52.998;9.068;2023-01-13T01:47:25;10.10;;;2.13;;
11616;SDS011;5864;52.998;9.068;2023-01-13T01:49:55;15.43;;;2.73;;
11616;SDS011;5864;52.998;9.068;2023-01-13T01:52:25;8.80;;;2.23;;
11616;SDS011;5864;52.998;9.068;2023-01-13T01:54:57;7.77;;;2.20;;
11616;SDS011;5864;52.998;9.068;2023-01-13T01:57:30;7.50;;;2.17;;
11616;SDS011;5864;52.998;9.068;2023-01-13T02:00:07;6.37;;;1.90;;
11616;SDS011;5864;52.998;9.068;2023-01-13T02:02:35;10.00;;;2.43;;
11616;SDS011;5864;52.998;9.068;2023-01-13T02:05:04;12.43;;;2.80;;
11616;SDS011;5864;52.998;9.068;2023-01-13T02:07:32;9.77;;;2.60;;
11616;SDS011;5864;52.998;9.068;2023-01-13T02:10:03;8.40;;;2.33;;
11616;SDS011;5864;52.998;9.068;2023-01-13T02:12:35;8.63;;;2.03;;
11616;SDS011;5864;52.998;9.068;2023-01-13T02:15:03;9.33;;;2.67;;
11616;SDS011;5864;52.998;9.068;2023-01-13T02:17:37;9.00;;;2.83;;
11616;SDS011;5864;52.998;9.068;2023-01-13T02:20:39;11.80;;;2.57;;
11616;SDS011;5864;52.998;9.068;2023-01-13T02:27:06;13.40;;;2.60;;
11616;SDS011;5864;52.998;9.068;2023-01-13T02:29:48;8.30;;;2.47;;
11616;SDS011;5864;52.998;9.068;2023-01-13T02:32:43;12.43;;;3.37;;
11616;SDS011;5864;52.998;9.068;2023-01-13T02:35:18;8.07;;;2.57;;
11616;SDS011;5864;52.998;9.068;2023-01-13T02:37:50;8.10;;;2.90;;
11616;SDS011;5864;52.998;9.068;2023-01-13T02:40:20;9.20;;;2.90;;
11616;SDS011;5864;52.998;9.068;2023-01-13T02:42:52;11.70;;;2.63;;
11616;SDS011;5864;52.998;9.068;2023-01-13T02:45:47;16.10;;;3.33;;
11616;SDS011;5864;52.998;9.068;2023-01-13T02:48:19;11.87;;;2.97;;
11616;SDS011;5864;52.998;9.068;2023-01-13T02:50:52;17.87;;;3.33;;
11616;SDS011;5864;52.998;9.068;2023-01-13T02:53:25;14.33;;;3.43;;
11616;SDS011;5864;52.998;9.068;2023-01-13T02:55:58;13.23;;;2.63;;
11616;SDS011;5864;52.998;9.068;2023-01-13T02:58:28;12.27;;;3.03;;
11616;SDS011;5864;52.998;9.068;2023-01-13T03:00:59;13.27;;;3.53;;
11616;SDS011;5864;52.998;9.068;2023-01-13T03:03:27;9.83;;;2.80;;
11616;SDS011;5864;52.998;9.068;2023-01-13T03:05:55;11.63;;;2.73;;
11616;SDS011;5864;52.998;9.068;2023-01-13T03:08:31;17.03;;;3.03;;
11616;SDS011;5864;52.998;9.068;2023-01-13T03:11:06;12.53;;;3.00;;
11616;SDS011;5864;52.998;9.068;2023-01-13T03:16:33;13.30;;;3.50;;
11616;SDS011;5864;52.998;9.068;2023-01-13T03:19:15;16.10;;;3.07;;
11616;SDS011;5864;52.998;9.068;2023-01-13T03:21:52;15.67;;;3.00;;
11616;SDS011;5864;52.998;9.068;2023-01-13T03:24:24;12.53;;;3.10;;
11616;SDS011;5864;52.998;9.068;2023-01-13T03:26:57;16.53;;;3.53;;
11616;SDS011;5864;52.998;9.068;2023-01-13T03:29:31;16.57;;;3.30;;
11616;SDS011;5864;52.998;9.068;2023-01-13T03:32:04;11.67;;;3.37;;
11616;SDS011;5864;52.998;9.068;2023-01-13T03:34:37;15.13;;;3.67;;
11616;SDS011;5864;52.998;9.068;2023-01-13T03:37:10;11.70;;;3.10;;
11616;SDS011;5864;52.998;9.068;2023-01-13T03:39:44;17.73;;;3.50;;
11616;SDS011;5864;52.998;9.068;2023-01-13T03:42:17;16.67;;;3.67;;
11616;SDS011;5864;52.998;9.068;2023-01-13T03:44:49;13.17;;;3.40;;
11616;SDS011;5864;52.998;9.068;2023-01-13T03:47:24;12.13;;;3.57;;
11616;SDS011;5864;52.998;9.068;2023-01-13T03:49:59;21.33;;;4.60;;
11616;SDS011;5864;52.998;9.068;2023-01-13T03:52:30;13.13;;;3.23;;
11616;SDS011;5864;52.998;9.068;2023-01-13T03:55:04;12.97;;;3.60;;
11616;SDS011;5864;52.998;9.068;2023-01-13T03:57:35;18.63;;;4.33;;
11616;SDS011;5864;52.998;9.068;2023-01-13T04:00:07;14.07;;;3.30;;
11616;SDS011;5864;52.998;9.068;2023-01-13T04:02:42;14.47;;;3.37;;
11616;SDS011;5864;52.998;9.068;2023-01-13T04:05:15;13.10;;;3.90;;
11616;SDS011;5864;52.998;9.068;2023-01-13T04:07:48;10.77;;;3.40;;
11616;SDS011;5864;52.998;9.068;2023-01-13T04:10:20;15.07;;;3.37;;
11616;SDS011;5864;52.998;9.068;2023-01-13T04:12:55;13.17;;;3.80;;
11616;SDS011;5864;52.998;9.068;2023-01-13T04:15:27;14.77;;;3.60;;
11616;SDS011;5864;52.998;9.068;2023-01-13T04:18:09;17.93;;;3.50;;
11616;SDS011;5864;52.998;9.068;2023-01-13T04:20:38;17.53;;;3.30;;
11616;SDS011;5864;52.998;9.068;2023-01-13T04:23:07;14.33;;;3.53;;
11616;SDS011;5864;52.998;9.068;2023-01-13T04:25:35;16.83;;;3.33;;
11616;SDS011;5864;52.998;9.068;2023-01-13T04:28:03;9.40;;;3.17;;
11616;SDS011;5864;52.998;9.068;2023-01-13T04:30:30;14.30;;;3.50;;
11616;SDS011;5864;52.998;9.068;2023-01-13T04:32:58;13.60;;;3.47;;
11616;SDS011;5864;52.998;9.068;2023-01-13T04:35:27;16.33;;;3.57;;
11616;SDS011;5864;52.998;9.068;2023-01-13T04:37:54;17.17;;;3.40;;
11616;SDS011;5864;52.998;9.068;2023-01-13T04:40:22;14.60;;;3.73;;
11616;SDS011;5864;52.998;9.068;2023-01-13T04:42:49;11.83;;;3.07;;
11616;SDS011;5864;52.998;9.068;2023-01-13T04:45:17;15.33;;;3.60;;
11616;SDS011;5864;52.998;9.068;2023-01-13T04:47:44;13.80;;;3.57;;
11616;SDS011;5864;52.998;9.068;2023-01-13T04:50:13;19.13;;;3.23;;
11616;SDS011;5864;52.998;9.068;2023-01-13T04:52:45;11.13;;;3.30;;
11616;SDS011;5864;52.998;9.068;2023-01-13T04:55:14;17.37;;;4.33;;
11616;SDS011;5864;52.998;9.068;2023-01-13T04:57:42;15.77;;;3.20;;
11616;SDS011;5864;52.998;9.068;2023-01-13T05:00:10;10.77;;;3.00;;
11616;SDS011;5864;52.998;9.068;2023-01-13T05:02:39;14.07;;;3.80;;
11616;SDS011;5864;52.998;9.068;2023-01-13T05:05:07;16.30;;;3.60;;
11616;SDS011;5864;52.998;9.068;2023-01-13T05:07:35;16.37;;;3.77;;
11616;SDS011;5864;52.998;9.068;2023-01-13T05:10:05;14.23;;;3.40;;
11616;SDS011;5864;52.998;9.068;2023-01-13T05:12:33;14.40;;;3.07;;
11616;SDS011;5864;52.998;9.068;2023-01-13T05:15:18;16.93;;;4.30;;
11616;SDS011;5864;52.998;9.068;2023-01-13T05:18:03;19.17;;;4.00;;
11616;SDS011;5864;52.998;9.068;2023-01-13T05:20:31;15.13;;;3.50;;
11616;SDS011;5864;52.998;9.068;2023-01-13T05:22:59;12.57;;;3.47;;
11616;SDS011;5864;52.998;9.068;2023-01-13T05:25:46;18.80;;;4.00;;
11616;SDS011;5864;52.998;9.068;2023-01-13T05:28:14;17.63;;;4.40;;
11616;SDS011;5864;52.998;9.068;2023-01-13T05:33:27;14.87;;;4.47;;
11616;SDS011;5864;52.998;9.068;2023-01-13T05:35:54;18.33;;;4.20;;
11616;SDS011;5864;52.998;9.068;2023-01-13T05:38:22;18.33;;;4.67;;
11616;SDS011;5864;52.998;9.068;2023-01-13T05:40:51;18.93;;;4.40;;
11616;SDS011;5864;52.998;9.068;2023-01-13T05:43:35;20.77;;;4.70;;
11616;SDS011;5864;52.998;9.068;2023-01-13T05:46:04;17.37;;;4.20;;
11616;SDS011;5864;52.998;9.068;2023-01-13T05:48:34;22.20;;;4.27;;
11616;SDS011;5864;52.998;9.068;2023-01-13T05:51:04;14.93;;;3.77;;
11616;SDS011;5864;52.998;9.068;2023-01-13T05:53:33;18.03;;;4.10;;
11616;SDS011;5864;52.998;9.068;2023-01-13T05:56:03;13.23;;;4.10;;
11616;SDS011;5864;52.998;9.068;2023-01-13T05:58:32;13.70;;;4.07;;
11616;SDS011;5864;52.998;9.068;2023-01-13T06:01:01;18.90;;;5.40;;
11616;SDS011;5864;52.998;9.068;2023-01-13T06:03:30;15.53;;;3.93;;
11616;SDS011;5864;52.998;9.068;2023-01-13T06:05:58;17.07;;;4.50;;
11616;SDS011;5864;52.998;9.068;2023-01-13T06:08:27;18.57;;;4.70;;
11616;SDS011;5864;52.998;9.068;2023-01-13T06:10:54;16.57;;;4.53;;
11616;SDS011;5864;52.998;9.068;2023-01-13T06:13:27;17.53;;;4.57;;
11616;SDS011;5864;52.998;9.068;2023-01-13T06:15:57;18.17;;;3.87;;
11616;SDS011;5864;52.998;9.068;2023-01-13T06:18:25;17.17;;;4.03;;
11616;SDS011;5864;52.998;9.068;2023-01-13T06:20:53;14.07;;;3.73;;
11616;SDS011;5864;52.998;9.068;2023-01-13T06:23:21;26.37;;;4.60;;
11616;SDS011;5864;52.998;9.068;2023-01-13T06:25:50;17.87;;;3.87;;
11616;SDS011;5864;52.998;9.068;2023-01-13T06:28:24;18.67;;;4.60;;
11616;SDS011;5864;52.998;9.068;2023-01-13T06:30:58;15.60;;;3.97;;
11616;SDS011;5864;52.998;9.068;2023-01-13T06:33:30;25.23;;;4.93;;
11616;SDS011;5864;52.998;9.068;2023-01-13T06:36:03;11.13;;;3.43;;
11616;SDS011;5864;52.998;9.068;2023-01-13T06:38:36;21.80;;;4.30;;
11616;SDS011;5864;52.998;9.068;2023-01-13T06:41:08;16.83;;;3.67;;
11616;SDS011;5864;52.998;9.068;2023-01-13T06:43:36;19.00;;;4.70;;
11616;SDS011;5864;52.998;9.068;2023-01-13T06:46:04;16.43;;;3.63;;
11616;SDS011;5864;52.998;9.068;2023-01-13T06:48:32;23.40;;;3.97;;
11616;SDS011;5864;52.998;9.068;2023-01-13T06:51:00;18.07;;;3.83;;
11616;SDS011;5864;52.998;9.068;2023-01-13T06:53:28;19.07;;;4.10;;
11616;SDS011;5864;52.998;9.068;2023-01-13T06:55:56;17.17;;;3.87;;
11616;SDS011;5864;52.998;9.068;2023-01-13T06:58:23;24.40;;;4.90;;
11616;SDS011;5864;52.998;9.068;2023-01-13T07:00:51;19.17;;;4.50;;
11616;SDS011;5864;52.998;9.068;2023-01-13T07:03:20;19.07;;;4.50;;
11616;SDS011;5864;52.998;9.068;2023-01-13T07:05:51;19.70;;;3.70;;
11616;SDS011;5864;52.998;9.068;2023-01-13T07:08:19;16.00;;;3.67;;
11616;SDS011;5864;52.998;9.068;2023-01-13T07:10:48;20.83;;;4.03;;
11616;SDS011;5864;52.998;9.068;2023-01-13T07:13:16;15.30;;;3.50;;
11616;SDS011;5864;52.998;9.068;2023-01-13T07:16:01;16.57;;;3.83;;
11616;SDS011;5864;52.998;9.068;2023-01-13T07:18:32;16.57;;;3.60;;
11616;SDS011;5864;52.998;9.068;2023-01-13T07:21:00;13.70;;;3.33;;
11616;SDS011;5864;52.998;9.068;2023-01-13T07:23:30;15.17;;;3.83;;
11616;SDS011;5864;52.998;9.068;2023-01-13T07:26:00;19.37;;;4.20;;
11616;SDS011;5864;52.998;9.068;2023-01-13T07:28:28;13.10;;;3.47;;
11616;SDS011;5864;52.998;9.068;2023-01-13T07:30:59;19.60;;;4.80;;
11616;SDS011;5864;52.998;9.068;2023-01-13T07:33:27;23.23;;;4.37;;
11616;SDS011;5864;52.998;9.068;2023-01-13T07:36:00;15.27;;;3.80;;
11616;SDS011;5864;52.998;9.068;2023-01-13T07:38:29;13.83;;;3.53;;
11616;SDS011;5864;52.998;9.068;2023-01-13T07:40:57;13.83;;;3.53;;
11616;SDS011;5864;52.998;9.068;2023-01-13T07:43:46;18.10;;;3.60;;
11616;SDS011;5864;52.998;9.068;2023-01-13T07:46:13;14.67;;;3.50;;
11616;SDS011;5864;52.998;9.068;2023-01-13T07:48:40;12.73;;;3.23;;
11616;SDS011;5864;52.998;9.068;2023-01-13T07:51:10;11.80;;;3.20;;
11616;SDS011;5864;52.998;9.068;2023-01-13T07:53:39;14.43;;;3.77;;
11616;SDS011;5864;52.998;9.068;2023-01-13T07:56:07;14.40;;;2.73;;
11616;SDS011;5864;52.998;9.068;2023-01-13T07:58:35;14.13;;;3.07;;
11616;SDS011;5864;52.998;9.068;2023-01-13T08:01:06;19.77;;;3.77;;
11616;SDS011;5864;52.998;9.068;2023-01-13T08:03:34;12.03;;;2.70;;
11616;SDS011;5864;52.998;9.068;2023-01-13T08:06:02;25.90;;;3.83;;
11616;SDS011;5864;52.998;9.068;2023-01-13T08:08:31;15.27;;;3.77;;
11616;SDS011;5864;52.998;9.068;2023-01-13T08:10:59;17.30;;;3.47;;
11616;SDS011;5864;52.998;9.068;2023-01-13T08:13:26;17.13;;;4.03;;
11616;SDS011;5864;52.998;9.068;2023-01-13T08:15:57;17.13;;;3.10;;
11616;SDS011;5864;52.998;9.068;2023-01-13T08:18:26;11.10;;;2.97;;
11616;SDS011;5864;52.998;9.068;2023-01-13T08:20:54;12.40;;;2.63;;
11616;SDS011;5864;52.998;9.068;2023-01-13T08:23:21;11.57;;;2.87;;
11616;SDS011;5864;52.998;9.068;2023-01-13T08:25:50;12.83;;;3.27;;
11616;SDS011;5864;52.998;9.068;2023-01-13T08:28:18;8.37;;;2.50;;
11616;SDS011;5864;52.998;9.068;2023-01-13T08:30:47;10.40;;;3.17;;
11616;SDS011;5864;52.998;9.068;2023-01-13T08:33:17;8.77;;;2.73;;
11616;SDS011;5864;52.998;9.068;2023-01-13T08:35:45;9.27;;;2.57;;
11616;SDS011;5864;52.998;9.068;2023-01-13T08:38:17;9.53;;;2.87;;
11616;SDS011;5864;52.998;9.068;2023-01-13T08:40:45;6.17;;;2.37;;
11616;SDS011;5864;52.998;9.068;2023-01-13T08:43:14;8.53;;;2.53;;
11616;SDS011;5864;52.998;9.068;2023-01-13T08:45:41;9.97;;;2.70;;
11616;SDS011;5864;52.998;9.068;2023-01-13T08:48:09;10.67;;;2.73;;
11616;SDS011;5864;52.998;9.068;2023-01-13T08:50:37;9.43;;;2.73;;
11616;SDS011;5864;52.998;9.068;2023-01-13T08:53:04;12.07;;;2.77;;
11616;SDS011;5864;52.998;9.068;2023-01-13T08:55:31;8.43;;;2.23;;
11616;SDS011;5864;52.998;9.068;2023-01-13T08:57:59;6.77;;;2.23;;
11616;SDS011;5864;52.998;9.068;2023-01-13T09:00:28;7.50;;;2.27;;
11616;SDS011;5864;52.998;9.068;2023-01-13T09:02:57;5.97;;;2.10;;
11616;SDS011;5864;52.998;9.068;2023-01-13T09:05:25;5.50;;;2.10;;
11616;SDS011;5864;52.998;9.068;2023-01-13T09:07:52;11.53;;;2.00;;
11616;SDS011;5864;52.998;9.068;2023-01-13T09:10:20;9.33;;;2.50;;
11616;SDS011;5864;52.998;9.068;2023-01-13T09:12:47;8.80;;;2.70;;
11616;SDS011;5864;52.998;9.068;2023-01-13T09:15:34;11.03;;;2.27;;
11616;SDS011;5864;52.998;9.068;2023-01-13T09:18:01;12.00;;;2.67;;
11616;SDS011;5864;52.998;9.068;2023-01-13T09:20:31;7.73;;;2.63;;
11616;SDS011;5864;52.998;9.068;2023-01-13T09:22:59;9.70;;;2.60;;
11616;SDS011;5864;52.998;9.068;2023-01-13T09:25:27;10.50;;;2.47;;
11616;SDS011;5864;52.998;9.068;2023-01-13T09:27:55;12.67;;;2.60;;
11616;SDS011;5864;52.998;9.068;2023-01-13T09:30:22;10.83;;;2.57;;
11616;SDS011;5864;52.998;9.068;2023-01-13T09:32:51;9.30;;;2.30;;
11616;SDS011;5864;52.998;9.068;2023-01-13T09:35:39;7.70;;;2.83;;
11616;SDS011;5864;52.998;9.068;2023-01-13T09:38:05;11.47;;;2.77;;
11616;SDS011;5864;52.998;9.068;2023-01-13T09:40:36;16.10;;;3.03;;
11616;SDS011;5864;52.998;9.068;2023-01-13T09:43:10;9.63;;;2.73;;
11616;SDS011;5864;52.998;9.068;2023-01-13T09:46:02;10.03;;;2.40;;
11616;SDS011;5864;52.998;9.068;2023-01-13T09:48:54;8.00;;;3.20;;
11616;SDS011;5864;52.998;9.068;2023-01-13T09:51:23;12.60;;;2.60;;
11616;SDS011;5864;52.998;9.068;2023-01-13T09:53:56;11.77;;;2.73;;
11616;SDS011;5864;52.998;9.068;2023-01-13T09:56:27;10.33;;;2.83;;
11616;SDS011;5864;52.998;9.068;2023-01-13T09:58:55;14.10;;;2.43;;
11616;SDS011;5864;52.998;9.068;2023-01-13T10:01:25;9.23;;;2.57;;
11616;SDS011;5864;52.998;9.068;2023-01-13T10:04:02;10.57;;;2.97;;
11616;SDS011;5864;52.998;9.068;2023-01-13T10:06:31;13.10;;;2.57;;
11616;SDS011;5864;52.998;9.068;2023-01-13T10:09:03;18.83;;;3.57;;
11616;SDS011;5864;52.998;9.068;2023-01-13T10:11:32;14.10;;;3.20;;
11616;SDS011;5864;52.998;9.068;2023-01-13T10:14:21;10.93;;;3.00;;
11616;SDS011;5864;52.998;9.068;2023-01-13T10:16:56;12.77;;;3.33;;
11616;SDS011;5864;52.998;9.068;2023-01-13T10:19:35;15.77;;;3.20;;
11616;SDS011;5864;52.998;9.068;2023-01-13T10:22:11;9.77;;;2.93;;
11616;SDS011;5864;52.998;9.068;2023-01-13T10:24:55;7.07;;;2.33;;
11616;SDS011;5864;52.998;9.068;2023-01-13T10:27:48;11.40;;;3.27;;
11616;SDS011;5864;52.998;9.068;2023-01-13T10:30:22;11.63;;;2.97;;
11616;SDS011;5864;52.998;9.068;2023-01-13T10:32:56;8.80;;;2.40;;
11616;SDS011;5864;52.998;9.068;2023-01-13T10:38:18;8.33;;;3.20;;
11616;SDS011;5864;52.998;9.068;2023-01-13T10:40:48;10.50;;;2.50;;
11616;SDS011;5864;52.998;9.068;2023-01-13T10:43:17;12.00;;;2.70;;
11616;SDS011;5864;52.998;9.068;2023-01-13T10:45:59;10.70;;;2.50;;
11616;SDS011;5864;52.998;9.068;2023-01-13T10:48:33;10.47;;;2.60;;
11616;SDS011;5864;52.998;9.068;2023-01-13T10:51:14;10.37;;;3.33;;
11616;SDS011;5864;52.998;9.068;2023-01-13T10:53:49;10.83;;;3.20;;
11616;SDS011;5864;52.998;9.068;2023-01-13T10:56:20;9.93;;;2.47;;
11616;SDS011;5864;52.998;9.068;2023-01-13T10:58:48;9.57;;;2.63;;
11616;SDS011;5864;52.998;9.068;2023-01-13T11:01:21;11.53;;;3.27;;
11616;SDS011;5864;52.998;9.068;2023-01-13T11:03:51;10.67;;;2.97;;
11616;SDS011;5864;52.998;9.068;2023-01-13T11:06:22;9.13;;;2.80;;
11616;SDS011;5864;52.998;9.068;2023-01-13T11:08:51;10.17;;;3.00;;
11616;SDS011;5864;52.998;9.068;2023-01-13T11:11:39;12.47;;;2.80;;
11616;SDS011;5864;52.998;9.068;2023-01-13T11:14:18;13.17;;;3.00;;
11616;SDS011;5864;52.998;9.068;2023-01-13T11:17:05;15.33;;;3.43;;
11616;SDS011;5864;52.998;9.068;2023-01-13T11:19:41;6.83;;;2.77;;
11616;SDS011;5864;52.998;9.068;2023-01-13T11:22:15;11.83;;;3.10;;
11616;SDS011;5864;52.998;9.068;2023-01-13T11:24:47;11.00;;;3.30;;
11616;SDS011;5864;52.998;9.068;2023-01-13T11:27:20;12.33;;;2.97;;
11616;SDS011;5864;52.998;9.068;2023-01-13T11:29:58;11.73;;;2.87;;
11616;SDS011;5864;52.998;9.068;2023-01-13T11:32:34;12.87;;;2.90;;
11616;SDS011;5864;52.998;9.068;2023-01-13T11:35:13;5.67;;;2.30;;
11616;SDS011;5864;52.998;9.068;2023-01-13T11:37:45;12.77;;;3.53;;
11616;SDS011;5864;52.998;9.068;2023-01-13T11:40:20;9.67;;;2.53;;
11616;SDS011;5864;52.998;9.068;2023-01-13T11:42:52;13.70;;;3.03;;
11616;SDS011;5864;52.998;9.068;2023-01-13T11:45:28;12.33;;;2.50;;
11616;SDS011;5864;52.998;9.068;2023-01-13T11:48:02;10.50;;;2.97;;
11616;SDS011;5864;52.998;9.068;2023-01-13T11:50:31;10.60;;;2.67;;
11616;SDS011;5864;52.998;9.068;2023-01-13T11:53:11;10.87;;;2.40;;
11616;SDS011;5864;52.998;9.068;2023-01-13T11:55:52;10.90;;;2.53;;
11616;SDS011;5864;52.998;9.068;2023-01-13T11:58:30;7.60;;;2.40;;
11616;SDS011;5864;52.998;9.068;2023-01-13T12:01:30;10.23;;;2.20;;
11616;SDS011;5864;52.998;9.068;2023-01-13T12:04:20;12.83;;;3.57;;
11616;SDS011;5864;52.998;9.068;2023-01-13T12:06:57;9.60;;;2.63;;
11616;SDS011;5864;52.998;9.068;2023-01-13T12:09:41;9.53;;;2.80;;
11616;SDS011;5864;52.998;9.068;2023-01-13T12:12:19;11.00;;;2.50;;
11616;SDS011;5864;52.998;9.068;2023-01-13T12:15:06;7.40;;;2.30;;
11616;SDS011;5864;52.998;9.068;2023-01-13T12:17:58;10.27;;;2.57;;
11616;SDS011;5864;52.998;9.068;2023-01-13T12:20:41;8.23;;;2.57;;
11616;SDS011;5864;52.998;9.068;2023-01-13T12:23:18;8.17;;;2.13;;
11616;SDS011;5864;52.998;9.068;2023-01-13T12:25:51;12.80;;;2.90;;
11616;SDS011;5864;52.998;9.068;2023-01-13T12:28:25;9.93;;;2.87;;
11616;SDS011;5864;52.998;9.068;2023-01-13T12:30:56;9.43;;;2.40;;
11616;SDS011;5864;52.998;9.068;2023-01-13T12:33:28;8.30;;;2.00;;
11616;SDS011;5864;52.998;9.068;2023-01-13T12:36:11;8.57;;;2.40;;
11616;SDS011;5864;52.998;9.068;2023-01-13T12:38:44;8.07;;;2.87;;
11616;SDS011;5864;52.998;9.068;2023-01-13T12:41:19;8.80;;;2.27;;
11616;SDS011;5864;52.998;9.068;2023-01-13T12:43:55;8.57;;;2.20;;
11616;SDS011;5864;52.998;9.068;2023-01-13T12:46:44;9.73;;;2.60;;
11616;SDS011;5864;52.998;9.068;2023-01-13T12:49:18;8.10;;;2.33;;
11616;SDS011;5864;52.998;9.068;2023-01-13T12:57:59;13.30;;;2.73;;
11616;SDS011;5864;52.998;9.068;2023-01-13T13:00:59;10.07;;;2.47;;
11616;SDS011;5864;52.998;9.068;2023-01-13T13:03:39;8.90;;;2.23;;
11616;SDS011;5864;52.998;9.068;2023-01-13T13:06:12;6.00;;;2.20;;
11616;SDS011;5864;52.998;9.068;2023-01-13T13:08:58;11.13;;;2.47;;
11616;SDS011;5864;52.998;9.068;2023-01-13T13:11:35;9.87;;;2.00;;
11616;SDS011;5864;52.998;9.068;2023-01-13T13:17:41;8.47;;;2.50;;
11616;SDS011;5864;52.998;9.068;2023-01-13T13:23:25;4.70;;;2.27;;
11616;SDS011;5864;52.998;9.068;2023-01-13T13:26:26;8.13;;;2.93;;
11616;SDS011;5864;52.998;9.068;2023-01-13T13:29:04;10.33;;;2.30;;
11616;SDS011;5864;52.998;9.068;2023-01-13T13:31:51;8.80;;;2.40;;
11616;SDS011;5864;52.998;9.068;2023-01-13T13:34:47;8.87;;;2.27;;
11616;SDS011;5864;52.998;9.068;2023-01-13T13:37:32;11.80;;;2.70;;
11616;SDS011;5864;52.998;9.068;2023-01-13T13:40:38;6.70;;;2.73;;
11616;SDS011;5864;52.998;9.068;2023-01-13T13:43:24;8.43;;;2.40;;
11616;SDS011;5864;52.998;9.068;2023-01-13T13:46:24;8.83;;;2.57;;
11616;SDS011;5864;52.998;9.068;2023-01-13T13:49:12;9.37;;;2.40;;
11616;SDS011;5864;52.998;9.068;2023-01-13T13:51:42;8.37;;;2.40;;
11616;SDS011;5864;52.998;9.068;2023-01-13T13:54:14;10.47;;;2.77;;
11616;SDS011;5864;52.998;9.068;2023-01-13T13:56:45;6.57;;;2.10;;
11616;SDS011;5864;52.998;9.068;2023-01-13T13:59:16;9.50;;;2.63;;
11616;SDS011;5864;52.998;9.068;2023-01-13T14:01:49;8.70;;;2.37;;
11616;SDS011;5864;52.998;9.068;2023-01-13T14:04:26;10.80;;;2.80;;
11616;SDS011;5864;52.998;9.068;2023-01-13T14:06:56;5.53;;;2.47;;
11616;SDS011;5864;52.998;9.068;2023-01-13T14:09:25;7.20;;;2.30;;
11616;SDS011;5864;52.998;9.068;2023-01-13T14:11:58;12.67;;;2.67;;
11616;SDS011;5864;52.998;9.068;2023-01-13T14:14:27;9.07;;;2.47;;
11616;SDS011;5864;52.998;9.068;2023-01-13T14:16:59;5.63;;;2.20;;
11616;SDS011;5864;52.998;9.068;2023-01-13T14:19:40;11.57;;;2.60;;
11616;SDS011;5864;52.998;9.068;2023-01-13T14:22:11;7.73;;;2.40;;
11616;SDS011;5864;52.998;9.068;2023-01-13T14:24:44;4.93;;;2.20;;
11616;SDS011;5864;52.998;9.068;2023-01-13T14:27:20;10.37;;;2.20;;
11616;SDS011;5864;52.998;9.068;2023-01-13T14:29:51;8.03;;;2.03;;
11616;SDS011;5864;52.998;9.068;2023-01-13T14:32:20;9.03;;;2.53;;
11616;SDS011;5864;52.998;9.068;2023-01-13T14:37:46;11.10;;;2.57;;
11616;SDS011;5864;52.998;9.068;2023-01-13T14:43:12;9.27;;;2.30;;
11616;SDS011;5864;52.998;9.068;2023-01-13T14:45:51;8.57;;;2.53;;
11616;SDS011;5864;52.998;9.068;2023-01-13T14:48:26;8.60;;;2.30;;
11616;SDS011;5864;52.998;9.068;2023-01-13T14:51:01;6.63;;;2.60;;
11616;SDS011;5864;52.998;9.068;2023-01-13T14:53:34;9.80;;;2.37;;
11616;SDS011;5864;52.998;9.068;2023-01-13T14:59:35;10.93;;;2.37;;
11616;SDS011;5864;52.998;9.068;2023-01-13T15:05:28;7.97;;;2.10;;
11616;SDS011;5864;52.998;9.068;2023-01-13T15:08:28;8.73;;;2.13;;
11616;SDS011;5864;52.998;9.068;2023-01-13T15:11:00;9.03;;;2.27;;
11616;SDS011;5864;52.998;9.068;2023-01-13T15:13:31;6.37;;;2.00;;
11616;SDS011;5864;52.998;9.068;2023-01-13T15:16:04;6.13;;;1.80;;
11616;SDS011;5864;52.998;9.068;2023-01-13T15:18:33;6.53;;;1.83;;
11616;SDS011;5864;52.998;9.068;2023-01-13T15:21:04;6.73;;;1.97;;
11616;SDS011;5864;52.998;9.068;2023-01-13T15:23:34;9.47;;;2.50;;
11616;SDS011;5864;52.998;9.068;2023-01-13T15:26:02;6.57;;;2.30;;
11616;SDS011;5864;52.998;9.068;2023-01-13T15:28:32;5.63;;;1.90;;
11616;SDS011;5864;52.998;9.068;2023-01-13T15:31:00;9.30;;;2.10;;
11616;SDS011;5864;52.998;9.068;2023-01-13T15:33:28;8.20;;;2.00;;
11616;SDS011;5864;52.998;9.068;2023-01-13T15:35:55;7.77;;;1.90;;
11616;SDS011;5864;52.998;9.068;2023-01-13T15:38:23;8.93;;;3.13;;
11616;SDS011;5864;52.998;9.068;2023-01-13T15:40:52;10.83;;;2.73;;
11616;SDS011;5864;52.998;9.068;2023-01-13T15:43:20;8.10;;;2.97;;
11616;SDS011;5864;52.998;9.068;2023-01-13T15:46:13;9.83;;;2.70;;
11616;SDS011;5864;52.998;9.068;2023-01-13T15:49:01;9.30;;;3.03;;
11616;SDS011;5864;52.998;9.068;2023-01-13T15:51:34;11.87;;;3.60;;
11616;SDS011;5864;52.998;9.068;2023-01-13T15:54:03;5.80;;;2.30;;
11616;SDS011;5864;52.998;9.068;2023-01-13T15:56:33;7.87;;;2.60;;
11616;SDS011;5864;52.998;9.068;2023-01-13T15:59:02;6.30;;;1.93;;
11616;SDS011;5864;52.998;9.068;2023-01-13T16:01:30;5.77;;;1.87;;
11616;SDS011;5864;52.998;9.068;2023-01-13T16:03:58;8.53;;;2.17;;
11616;SDS011;5864;52.998;9.068;2023-01-13T16:06:27;6.40;;;2.13;;